createdAt,value
2023-01-29T00:08:29.009Z,0.02
2023-01-29T00:30:14.887Z,0.05
2023-01-29T00:52:18.913Z,-0.10
2023-01-29T01:14:04.642Z,-0.09
2023-01-29T01:35:48.834Z,-0.16
2023-01-29T01:57:35.081Z,-0.11
2023-01-29T02:19:34.709Z,0.03
2023-01-29T02:41:27.933Z,0.03
2023-01-29T03:03:19.165Z,0.13
2023-01-29T03:25:24.659Z,0.09
2023-01-29T03:47:20.064Z,0.12
2023-01-29T04:09:07.640Z,0.04
2023-01-29T04:30:59.811Z,-0.03
2023-01-29T04:52:56.580Z,-0.04
2023-01-29T05:14:45.616Z,-0.15
2023-01-29T05:36:31.438Z,-0.19
2023-01-29T05:58:19.758Z,-0.24
2023-01-29T06:20:06.537Z,-0.36
2023-01-29T06:41:52.299Z,-0.42
2023-01-29T07:03:37.339Z,-0.46
2023-01-29T07:25:23.288Z,-0.51
2023-01-29T07:47:09.212Z,-0.38
2023-01-29T08:08:55.906Z,-0.20
2023-01-29T08:30:45.190Z,-0.20
2023-01-29T08:52:31.698Z,-0.01
2023-01-29T09:14:17.783Z,0.33
2023-01-29T09:36:05.431Z,0.63
2023-01-29T09:57:54.314Z,1.05
2023-01-29T10:20:05.939Z,1.89
2023-01-29T10:42:20.844Z,2.65
2023-01-29T11:04:07.745Z,2.39
2023-01-29T11:25:58.333Z,2.46
2023-01-29T11:47:49.843Z,2.51
2023-01-29T12:09:36.707Z,2.63
2023-01-29T12:31:39.874Z,2.57
2023-01-29T12:53:33.009Z,2.63
2023-01-29T13:15:25.884Z,2.67
2023-01-29T13:37:19.742Z,2.88
2023-01-29T13:59:07.617Z,2.81
2023-01-29T14:21:07.861Z,2.77
2023-01-29T14:43:01.778Z,2.86
2023-01-29T15:04:51.177Z,2.88
2023-01-29T15:26:38.632Z,2.72
2023-01-29T15:48:32.878Z,2.49
2023-01-29T16:10:21.765Z,2.55
2023-01-29T16:32:12.881Z,2.54
2023-01-29T16:54:02.328Z,2.45
2023-01-29T17:15:49.356Z,2.42
2023-01-29T17:37:37.829Z,2.38
2023-01-29T17:59:25.735Z,2.25
2023-01-29T18:21:11.646Z,2.14
2023-01-29T18:42:59.781Z,2.14
2023-01-29T19:04:46.476Z,2.12
2023-01-29T19:26:34.192Z,2.10
2023-01-29T19:48:22.212Z,2.02
2023-01-29T20:10:17.413Z,1.82
2023-01-29T20:32:04.302Z,1.58
2023-01-29T20:53:50.761Z,1.50
2023-01-29T21:15:39.845Z,1.24
2023-01-29T21:37:25.685Z,1.08
2023-01-29T21:59:15.000Z,0.85
2023-01-29T22:21:03.073Z,0.68
2023-01-29T22:42:48.928Z,0.53
2023-01-29T23:04:36.744Z,0.54
2023-01-29T23:26:41.012Z,0.69
2023-01-29T23:48:27.643Z,0.74
